Kure, Japan
Current Conditions -  °F | °C
As of 8:55 AM on Tuesday 21 Oct 2014 (Local Time) from RJOI Reporting Station
Haze Haze  
Wind Chill: 69°   Ceiling: 4000
Heat Index: 69°   Visibility: 6mi
Dew Point: 60°   Wind: 0mph
Humidity: 73%   Direction: NA
Pressure: 30.08"   Gusts: NA
Location:  34.25°N, 132.56°E
Report Text: RJOI 202355Z 00000KT 9000 HZ SCT025 BKN040 OVC080 21/16 A3008 RMK SLP186 T02060156 10206 20183 51014
Loading
Personal Weather Stations






























Interactive Weather Map
Tropical Storm Tracking
New forecast layout! Learn more

10-Day Weather Forecast

Advertisements
Track Severe Weather on mobile